Time;durP1;ratioP1;P1;durP2;ratioP2;P2;SDS_P1;SDS_P2;PMS_P1;PMS_P2;Temp;Humidity;BMP_temperature;BMP_pressure;BME280_temperature;BME280_humidity;BME280_pressure;Samples;Min_cycle;Max_cycle;Signal;HPM_P1;HPM_P2
2021/12/22 00:02:13;;;;;;;12.45;2.45;;;;;;;;;;4921746;29;20052;-72
2021/12/22 00:04:45;;;;;;;15.50;1.83;;;;;;;;;;4912941;29;20056;-67
2021/12/22 00:07:16;;;;;;;10.68;1.77;;;;;;;;;;4914121;29;20056;-68
2021/12/22 00:09:48;;;;;;;7.75;2.15;;;;;;;;;;4914394;29;20386;-67
2021/12/22 00:12:19;;;;;;;15.27;1.92;;;;;;;;;;4914187;29;20516;-70
2021/12/22 00:14:49;;;;;;;7.25;1.80;;;;;;;;;;4914163;29;20571;-63
2021/12/22 00:17:19;;;;;;;15.98;2.20;;;;;;;;;;4925258;29;20547;-65
2021/12/22 00:19:49;;;;;;;7.28;1.52;;;;;;;;;;4933186;29;20051;-66
2021/12/22 00:22:21;;;;;;;7.50;1.65;;;;;;;;;;4943897;29;20055;-65
2021/12/22 00:24:52;;;;;;;8.68;2.10;;;;;;;;;;4947456;29;20436;-67
2021/12/22 00:27:22;;;;;;;6.28;1.42;;;;;;;;;;4952074;28;20054;-65
2021/12/22 00:29:53;;;;;;;8.57;2.03;;;;;;;;;;4935845;29;20404;-66
2021/12/22 00:32:27;;;;;;;6.18;1.20;;;;;;;;;;4937902;28;20063;-66
2021/12/22 00:34:58;;;;;;;7.10;1.55;;;;;;;;;;4944515;28;20083;-75
2021/12/22 00:37:32;;;;;;;10.07;1.63;;;;;;;;;;4913826;29;20044;-65
2021/12/22 00:40:06;;;;;;;11.50;1.30;;;;;;;;;;4909802;29;20048;-66
2021/12/22 00:42:36;;;;;;;6.55;1.55;;;;;;;;;;4913795;29;20412;-66
2021/12/22 00:45:08;;;;;;;6.63;1.23;;;;;;;;;;4911558;29;20052;-71
2021/12/22 00:47:38;;;;;;;7.28;1.10;;;;;;;;;;4913855;29;20048;-66
2021/12/22 00:50:09;;;;;;;5.40;1.38;;;;;;;;;;4913928;29;20048;-66
2021/12/22 00:52:41;;;;;;;3.85;1.40;;;;;;;;;;4913905;29;20532;-66
2021/12/22 00:55:14;;;;;;;6.88;1.30;;;;;;;;;;4913164;29;20063;-65
2021/12/22 00:57:45;;;;;;;8.27;1.10;;;;;;;;;;4932058;28;20079;-67
2021/12/22 01:00:26;;;;;;;7.43;1.23;;;;;;;;;;4932413;28;20066;-66
2021/12/22 01:02:57;;;;;;;6.20;1.48;;;;;;;;;;4941009;28;20062;-66
2021/12/22 01:05:28;;;;;;;6.65;1.42;;;;;;;;;;4925611;29;20818;-66
2021/12/22 01:07:59;;;;;;;8.20;1.15;;;;;;;;;;4928250;29;20044;-66
2021/12/22 01:10:31;;;;;;;7.85;1.45;;;;;;;;;;4931604;29;20040;-72
2021/12/22 01:13:04;;;;;;;;;;;;;;;;;;4932185;29;20052;-65
2021/12/22 01:15:36;;;;;;;2.65;1.15;;;;;;;;;;4932023;29;19930;-66
2021/12/22 01:18:27;;;;;;;10.43;1.50;;;;;;;;;;4915764;29;20056;-66
2021/12/22 01:23:40;;;;;;;9.43;1.17;;;;;;;;;;4938136;28;20106;-74
2021/12/22 01:26:10;;;;;;;6.28;1.20;;;;;;;;;;4911682;28;20104;-69
2021/12/22 01:28:42;;;;;;;11.05;1.55;;;;;;;;;;4887872;29;20049;-66
2021/12/22 01:31:16;;;;;;;8.63;1.30;;;;;;;;;;4869151;29;20064;-66
2021/12/22 01:33:47;;;;;;;5.05;1.35;;;;;;;;;;4886433;29;20056;-66
2021/12/22 01:36:17;;;;;;;11.70;1.20;;;;;;;;;;4862591;29;20558;-67
2021/12/22 01:38:48;;;;;;;10.38;1.25;;;;;;;;;;4892728;29;20052;-67
2021/12/22 01:41:18;;;;;;;7.00;1.20;;;;;;;;;;4893380;29;20052;-65
2021/12/22 01:43:50;;;;;;;8.23;1.13;;;;;;;;;;4879556;29;20069;-66
2021/12/22 01:49:10;;;;;;;4.38;1.10;;;;;;;;;;4891697;29;20489;-66
2021/12/22 01:52:01;;;;;;;5.32;1.30;;;;;;;;;;4907708;29;20048;-66
2021/12/22 01:55:13;;;;;;;8.18;1.10;;;;;;;;;;4897307;29;20044;-66
2021/12/22 01:57:47;;;;;;;4.65;1.15;;;;;;;;;;4913066;29;20060;-66
2021/12/22 02:00:21;;;;;;;8.18;1.17;;;;;;;;;;4888866;29;20040;-76
2021/12/22 02:02:52;;;;;;;5.40;0.93;;;;;;;;;;4911424;29;20064;-65
2021/12/22 02:05:23;;;;;;;4.75;1.20;;;;;;;;;;4895815;29;20057;-66
2021/12/22 02:07:57;;;;;;;5.68;1.23;;;;;;;;;;4894149;29;20449;-67
2021/12/22 02:10:39;;;;;;;4.90;1.50;;;;;;;;;;4893700;29;20417;-69
2021/12/22 02:13:15;;;;;;;6.78;1.27;;;;;;;;;;4898085;29;20508;-66
2021/12/22 02:15:47;;;;;;;6.38;1.00;;;;;;;;;;4916349;29;20060;-66
2021/12/22 02:18:20;;;;;;;4.43;1.45;;;;;;;;;;4931181;29;20063;-65
2021/12/22 02:20:50;;;;;;;;;;;;;;;;;;4931555;29;20056;-66
2021/12/22 02:23:20;;;;;;;4.55;1.25;;;;;;;;;;4931951;29;19923;-66
2021/12/22 02:25:56;;;;;;;7.18;1.35;;;;;;;;;;4931233;29;20056;-65
2021/12/22 02:28:31;;;;;;;3.30;1.02;;;;;;;;;;4953133;28;20058;-67
2021/12/22 02:31:02;;;;;;;5.90;1.05;;;;;;;;;;4933168;29;20055;-67
2021/12/22 02:33:37;;;;;;;3.78;1.52;;;;;;;;;;4935134;29;20424;-65
2021/12/22 02:38:58;;;;;;;4.55;0.90;;;;;;;;;;4954508;28;20062;-66
2021/12/22 02:41:30;;;;;;;7.25;1.13;;;;;;;;;;4954765;28;20058;-65
2021/12/22 02:44:01;;;;;;;5.82;1.48;;;;;;;;;;4946393;28;20455;-68
2021/12/22 02:46:35;;;;;;;4.80;0.98;;;;;;;;;;4954541;29;20055;-66
2021/12/22 02:49:07;;;;;;;10.70;1.42;;;;;;;;;;4950158;28;20059;-67
2021/12/22 02:51:38;;;;;;;7.45;1.20;;;;;;;;;;4954024;28;20063;-66
2021/12/22 02:54:16;;;;;;;6.55;1.30;;;;;;;;;;4938592;28;20059;-68
2021/12/22 02:59:41;;;;;;;7.50;1.42;;;;;;;;;;4996092;28;20058;-66
2021/12/22 03:02:59;;;;;;;16.88;1.20;;;;;;;;;;4992421;28;20050;-68
2021/12/22 03:05:08;;;;;;;5.32;1.27;;;;;;;;;;4950909;28;20130;-68
2021/12/22 03:07:38;;;;;;;5.60;1.33;;;;;;;;;;4919291;29;20059;-66
2021/12/22 03:10:17;;;;;;;7.22;1.58;;;;;;;;;;4918911;29;20429;-67
2021/12/22 03:12:55;;;;;;;10.35;1.55;;;;;;;;;;4919207;29;20445;-66
2021/12/22 03:15:26;;;;;;;10.85;1.30;;;;;;;;;;4915616;29;20074;-66
2021/12/22 03:17:57;;;;;;;7.50;1.38;;;;;;;;;;4915715;29;20422;-66
2021/12/22 03:20:27;;;;;;;8.13;1.38;;;;;;;;;;4900087;29;20052;-67
2021/12/22 03:22:57;;;;;;;7.47;1.30;;;;;;;;;;4915303;29;20076;-70
2021/12/22 03:25:28;;;;;;;6.65;1.90;;;;;;;;;;4884453;29;20137;-67
2021/12/22 03:28:03;;;;;;;5.32;1.55;;;;;;;;;;4925392;29;20416;-66
2021/12/22 03:30:34;;;;;;;6.13;1.30;;;;;;;;;;4937805;29;20055;-66
2021/12/22 03:33:04;;;;;;;7.07;1.35;;;;;;;;;;4953561;29;20570;-65
2021/12/22 03:35:38;;;;;;;9.38;1.45;;;;;;;;;;4956876;28;20058;-66
2021/12/22 03:38:08;;;;;;;5.45;1.45;;;;;;;;;;4940820;28;20062;-67
2021/12/22 03:40:38;;;;;;;6.35;1.30;;;;;;;;;;4988943;28;20081;-67
2021/12/22 03:43:08;;;;;;;9.82;1.48;;;;;;;;;;4992087;28;20055;-67
2021/12/22 03:45:38;;;;;;;8.23;1.50;;;;;;;;;;4992081;28;20061;-66
2021/12/22 03:48:09;;;;;;;8.50;1.20;;;;;;;;;;4991991;28;20157;-66
2021/12/22 03:50:39;;;;;;;6.25;1.05;;;;;;;;;;4972453;28;20057;-66
2021/12/22 03:53:10;;;;;;;5.35;1.30;;;;;;;;;;4993661;28;20990;-67
2021/12/22 03:55:41;;;;;;;4.80;1.35;;;;;;;;;;4995754;28;20065;-67
2021/12/22 03:58:13;;;;;;;5.05;1.33;;;;;;;;;;5011306;28;20042;-67
2021/12/22 04:00:45;;;;;;;4.15;1.20;;;;;;;;;;5011757;28;20065;-66
2021/12/22 04:03:19;;;;;;;5.47;1.40;;;;;;;;;;4995005;28;20042;-67
2021/12/22 04:05:49;;;;;;;8.75;1.30;;;;;;;;;;5011355;28;20498;-65
2021/12/22 04:08:20;;;;;;;6.95;1.15;;;;;;;;;;4964562;28;20499;-67
2021/12/22 04:10:51;;;;;;;7.65;2.05;;;;;;;;;;4972272;28;20419;-70
2021/12/22 04:13:22;;;;;;;5.07;1.48;;;;;;;;;;4933394;29;20056;-65
2021/12/22 04:15:52;;;;;;;6.68;1.70;;;;;;;;;;4933773;29;20420;-65
2021/12/22 04:18:23;;;;;;;5.97;1.10;;;;;;;;;;4933710;29;20550;-65
2021/12/22 04:20:53;;;;;;;6.07;1.15;;;;;;;;;;4918127;29;20052;-71
2021/12/22 04:23:23;;;;;;;8.45;1.38;;;;;;;;;;4933656;29;20066;-66
2021/12/22 04:25:54;;;;;;;7.90;1.55;;;;;;;;;;4933343;29;20051;-66
2021/12/22 04:28:24;;;;;;;4.00;1.25;;;;;;;;;;4877754;29;20052;-66
2021/12/22 04:30:55;;;;;;;6.30;1.05;;;;;;;;;;4877072;29;20057;-65
2021/12/22 04:33:25;;;;;;;3.17;1.63;;;;;;;;;;4876690;29;20049;-68
2021/12/22 04:35:55;;;;;;;7.15;1.55;;;;;;;;;;4862010;29;20065;-66
2021/12/22 04:38:26;;;;;;;6.72;1.52;;;;;;;;;;4891758;29;20182;-65
2021/12/22 04:40:57;;;;;;;7.00;2.15;;;;;;;;;;4861231;29;20059;-66
2021/12/22 04:43:28;;;;;;;6.93;1.45;;;;;;;;;;4876731;29;20057;-65
2021/12/22 04:45:58;;;;;;;6.05;1.40;;;;;;;;;;4864308;29;20091;-68
2021/12/22 04:48:28;;;;;;;6.38;2.17;;;;;;;;;;4923792;29;20458;-67
2021/12/22 04:50:59;;;;;;;7.75;1.75;;;;;;;;;;4942557;29;20063;-68
2021/12/22 04:53:37;;;;;;;3.88;1.48;;;;;;;;;;4904170;29;20415;-66
2021/12/22 04:56:07;;;;;;;;;;;;;;;;;;4953123;29;20058;-67
2021/12/22 04:58:37;;;;;;;6.95;1.88;;;;;;;;;;4971159;28;19922;-66
2021/12/22 05:01:10;;;;;;;8.50;1.70;;;;;;;;;;4971449;28;20530;-66
2021/12/22 05:03:42;;;;;;;17.35;2.25;;;;;;;;;;4962435;28;20396;-65
2021/12/22 05:06:13;;;;;;;11.25;2.35;;;;;;;;;;4959013;28;20412;-68
2021/12/22 05:08:43;;;;;;;8.55;2.00;;;;;;;;;;4932570;29;20056;-66
2021/12/22 05:11:13;;;;;;;7.50;1.70;;;;;;;;;;4932335;29;20067;-67
2021/12/22 05:13:44;;;;;;;6.60;2.15;;;;;;;;;;4932728;29;20398;-66
2021/12/22 05:16:18;;;;;;;7.20;1.40;;;;;;;;;;4906469;29;20537;-66
2021/12/22 05:19:10;;;;;;;6.28;1.35;;;;;;;;;;4912854;29;20059;-66
2021/12/22 05:21:42;;;;;;;5.63;1.73;;;;;;;;;;4894193;29;20414;-66
2021/12/22 05:24:13;;;;;;;5.00;1.35;;;;;;;;;;4893983;29;20091;-66
2021/12/22 05:26:43;;;;;;;4.10;1.88;;;;;;;;;;4894436;29;20424;-74
2021/12/22 05:29:14;;;;;;;6.18;1.83;;;;;;;;;;4890767;29;20429;-66
2021/12/22 05:31:47;;;;;;;4.78;1.35;;;;;;;;;;4875348;29;20064;-66
2021/12/22 05:34:17;;;;;;;4.13;1.33;;;;;;;;;;4890618;29;20525;-67
2021/12/22 05:36:48;;;;;;;9.60;1.45;;;;;;;;;;4834333;29;20085;-67
2021/12/22 05:39:19;;;;;;;9.20;2.20;;;;;;;;;;4838831;29;20076;-67
2021/12/22 05:41:49;;;;;;;6.03;1.67;;;;;;;;;;4851539;29;20057;-66
2021/12/22 05:44:19;;;;;;;8.35;1.40;;;;;;;;;;4890350;29;20061;-70
2021/12/22 05:46:50;;;;;;;3.65;1.40;;;;;;;;;;4893983;29;20076;-66
2021/12/22 05:49:20;;;;;;;11.57;1.92;;;;;;;;;;4893815;29;20433;-66
2021/12/22 05:51:51;;;;;;;6.35;1.77;;;;;;;;;;4894321;29;20542;-66
2021/12/22 05:54:21;;;;;;;5.05;1.42;;;;;;;;;;4931535;29;20488;-66
2021/12/22 05:56:51;;;;;;;6.32;1.73;;;;;;;;;;4887968;29;20053;-66
2021/12/22 05:59:21;;;;;;;7.75;1.60;;;;;;;;;;4893712;29;20063;-66
2021/12/22 06:01:52;;;;;;;5.25;1.77;;;;;;;;;;4912877;29;20056;-67
2021/12/22 06:04:22;;;;;;;3.78;1.50;;;;;;;;;;4912473;29;20048;-69
2021/12/22 06:06:52;;;;;;;5.85;1.90;;;;;;;;;;4931937;29;20087;-66
2021/12/22 06:09:22;;;;;;;7.05;1.70;;;;;;;;;;4941067;29;20056;-68
2021/12/22 06:11:53;;;;;;;6.32;1.70;;;;;;;;;;4931755;29;20067;-67
2021/12/22 06:14:24;;;;;;;6.20;1.70;;;;;;;;;;4930490;29;20052;-67
2021/12/22 06:16:54;;;;;;;9.90;1.80;;;;;;;;;;4931490;29;20051;-67
2021/12/22 06:19:24;;;;;;;8.50;2.90;;;;;;;;;;4931710;29;20381;-67
2021/12/22 06:21:55;;;;;;;8.48;1.55;;;;;;;;;;4931610;29;20056;-66
2021/12/22 06:24:25;;;;;;;9.80;1.90;;;;;;;;;;4931559;29;20064;-66
2021/12/22 06:26:55;;;;;;;6.93;1.70;;;;;;;;;;4931507;29;20051;-70
2021/12/22 06:29:26;;;;;;;9.05;2.05;;;;;;;;;;4931465;29;20055;-66
2021/12/22 06:31:56;;;;;;;6.57;1.75;;;;;;;;;;4913836;29;20067;-68
2021/12/22 06:34:26;;;;;;;5.40;1.40;;;;;;;;;;4906370;29;20052;-78
2021/12/22 06:36:58;;;;;;;8.70;2.13;;;;;;;;;;4912056;29;20048;-67
2021/12/22 06:39:29;;;;;;;9.18;2.10;;;;;;;;;;4912634;29;20060;-67
2021/12/22 06:42:11;;;;;;;7.00;1.85;;;;;;;;;;4912774;29;20067;-68
2021/12/22 06:44:42;;;;;;;12.43;1.73;;;;;;;;;;4865135;29;20057;-66
2021/12/22 06:47:12;;;;;;;7.05;1.90;;;;;;;;;;4882639;29;20053;-66
2021/12/22 06:49:43;;;;;;;5.88;1.88;;;;;;;;;;4874904;29;20057;-67
2021/12/22 06:52:13;;;;;;;7.28;1.90;;;;;;;;;;4874912;29;20064;-66
2021/12/22 06:54:43;;;;;;;8.60;1.90;;;;;;;;;;4906535;29;20055;-72
2021/12/22 06:57:18;;;;;;;5.80;1.67;;;;;;;;;;4931872;29;20064;-66
2021/12/22 06:59:49;;;;;;;7.85;2.03;;;;;;;;;;4931204;29;20055;-66
2021/12/22 07:02:19;;;;;;;10.70;2.40;;;;;;;;;;4930936;29;20059;-65
2021/12/22 07:04:49;;;;;;;5.28;1.80;;;;;;;;;;4912009;29;20063;-67
2021/12/22 07:07:20;;;;;;;4.93;2.13;;;;;;;;;;4893037;29;20100;-67
2021/12/22 07:09:51;;;;;;;6.03;2.40;;;;;;;;;;4874153;29;20069;-67
2021/12/22 07:12:21;;;;;;;10.50;2.63;;;;;;;;;;4874703;29;20450;-67
2021/12/22 07:14:51;;;;;;;8.15;2.35;;;;;;;;;;4874331;29;20061;-66
2021/12/22 07:17:24;;;;;;;8.88;2.42;;;;;;;;;;4876890;29;20544;-66
2021/12/22 07:19:55;;;;;;;6.15;2.83;;;;;;;;;;4878298;29;20469;-66
2021/12/22 07:22:24;;;;;;;5.03;1.95;;;;;;;;;;4862246;29;20056;-66
2021/12/22 07:24:55;;;;;;;6.90;1.92;;;;;;;;;;4887896;29;20072;-67
2021/12/22 07:27:27;;;;;;;5.75;2.03;;;;;;;;;;4896781;29;20063;-66
2021/12/22 07:29:57;;;;;;;6.55;2.45;;;;;;;;;;4896739;29;20049;-69
2021/12/22 07:32:28;;;;;;;4.88;2.47;;;;;;;;;;4896449;29;20052;-66
2021/12/22 07:35:11;;;;;;;7.53;2.13;;;;;;;;;;4915255;29;20056;-66
2021/12/22 07:37:41;;;;;;;4.90;2.30;;;;;;;;;;4915760;29;20048;-67
2021/12/22 07:40:19;;;;;;;7.50;2.88;;;;;;;;;;4923379;28;20576;-66
2021/12/22 07:42:49;;;;;;;5.35;2.30;;;;;;;;;;4873002;29;20053;-66
2021/12/22 07:45:19;;;;;;;13.85;2.55;;;;;;;;;;4859016;29;20065;-66
2021/12/22 07:47:50;;;;;;;8.77;3.10;;;;;;;;;;4895504;29;20398;-67
2021/12/22 07:50:20;;;;;;;6.18;2.75;;;;;;;;;;4898991;29;20048;-66
2021/12/22 07:52:51;;;;;;;6.32;2.72;;;;;;;;;;4915251;29;20075;-69
2021/12/22 07:55:21;;;;;;;6.35;2.20;;;;;;;;;;4914553;29;20052;-66
2021/12/22 07:57:54;;;;;;;9.18;2.45;;;;;;;;;;4914948;29;20060;-69
2021/12/22 08:00:24;;;;;;;8.32;2.97;;;;;;;;;;4891611;29;20048;-66
2021/12/22 08:02:55;;;;;;;9.93;2.63;;;;;;;;;;4899711;29;20053;-67
2021/12/22 08:05:45;;;;;;;8.65;2.50;;;;;;;;;;4895639;29;20541;-66
2021/12/22 08:08:17;;;;;;;8.45;2.40;;;;;;;;;;4877050;29;20057;-66
2021/12/22 08:10:51;;;;;;;10.32;2.80;;;;;;;;;;4906436;29;20387;-66
2021/12/22 08:13:21;;;;;;;9.50;2.58;;;;;;;;;;4876797;29;20494;-67
2021/12/22 08:15:51;;;;;;;9.93;2.42;;;;;;;;;;4876937;29;20064;-66
2021/12/22 08:18:23;;;;;;;8.50;2.42;;;;;;;;;;4876726;29;20102;-66
2021/12/22 08:20:54;;;;;;;9.27;2.30;;;;;;;;;;4876638;29;20076;-67
2021/12/22 08:23:25;;;;;;;10.00;2.45;;;;;;;;;;4914282;29;20052;-66
2021/12/22 08:25:55;;;;;;;8.45;2.78;;;;;;;;;;4898462;29;20060;-67
2021/12/22 08:28:25;;;;;;;12.30;3.20;;;;;;;;;;4885873;29;20053;-69
2021/12/22 08:30:56;;;;;;;8.98;2.53;;;;;;;;;;4895421;29;20216;-66
2021/12/22 08:33:30;;;;;;;10.15;2.85;;;;;;;;;;4895816;29;20176;-67
2021/12/22 08:38:53;;;;;;;10.23;2.67;;;;;;;;;;4876948;29;20058;-67
2021/12/22 08:41:33;;;;;;;9.95;3.05;;;;;;;;;;4952417;29;20059;-73
2021/12/22 08:44:10;;;;;;;10.70;2.95;;;;;;;;;;4981890;28;20055;-68
2021/12/22 08:46:46;;;;;;;11.90;3.10;;;;;;;;;;4991140;28;20054;-67
2021/12/22 08:49:19;;;;;;;8.77;3.00;;;;;;;;;;4991020;28;20074;-67
2021/12/22 08:51:50;;;;;;;12.88;3.38;;;;;;;;;;5040800;28;20053;-68
2021/12/22 08:54:21;;;;;;;16.95;3.78;;;;;;;;;;5050135;28;20472;-67
2021/12/22 08:56:52;;;;;;;15.75;3.45;;;;;;;;;;5067195;28;20059;-67
2021/12/22 08:59:24;;;;;;;11.07;2.90;;;;;;;;;;5070111;28;20707;-66
2021/12/22 09:01:54;;;;;;;9.55;3.20;;;;;;;;;;5050139;28;20409;-67
2021/12/22 09:04:25;;;;;;;9.85;2.65;;;;;;;;;;5017212;28;20058;-66
2021/12/22 09:06:55;;;;;;;13.88;3.10;;;;;;;;;;5052384;28;20052;-67
2021/12/22 09:09:25;;;;;;;14.18;3.53;;;;;;;;;;5029974;28;20068;-68
2021/12/22 09:11:56;;;;;;;12.88;2.72;;;;;;;;;;5030277;28;20057;-66
2021/12/22 09:14:27;;;;;;;11.15;2.90;;;;;;;;;;5032351;28;20057;-68
2021/12/22 09:16:57;;;;;;;10.18;2.92;;;;;;;;;;5041980;28;20049;-66
2021/12/22 09:19:27;;;;;;;9.45;2.90;;;;;;;;;;5006553;28;20541;-68
2021/12/22 09:21:58;;;;;;;10.30;2.85;;;;;;;;;;5004634;28;20050;-67
2021/12/22 09:24:28;;;;;;;16.90;3.75;;;;;;;;;;5007812;28;20457;-67
2021/12/22 09:26:58;;;;;;;10.68;2.90;;;;;;;;;;5004772;28;20058;-67
2021/12/22 09:29:29;;;;;;;8.05;2.80;;;;;;;;;;4986970;28;20077;-68
2021/12/22 09:31:59;;;;;;;9.95;2.75;;;;;;;;;;4949013;29;20435;-66
2021/12/22 09:34:30;;;;;;;10.80;2.90;;;;;;;;;;4932070;29;20072;-67
2021/12/22 09:37:01;;;;;;;19.52;3.35;;;;;;;;;;4914032;29;20052;-67
2021/12/22 09:39:32;;;;;;;18.33;3.05;;;;;;;;;;4930709;29;20055;-68
2021/12/22 09:42:02;;;;;;;9.93;2.72;;;;;;;;;;4928244;29;20052;-68
2021/12/22 09:44:42;;;;;;;10.48;3.15;;;;;;;;;;4941608;28;20173;-67
2021/12/22 09:47:23;;;;;;;16.13;3.47;;;;;;;;;;4946260;28;20051;-68
2021/12/22 09:52:30;;;;;;;15.48;3.85;;;;;;;;;;4900462;29;20079;-66
2021/12/22 09:55:01;;;;;;;15.10;3.80;;;;;;;;;;4915788;29;20071;-69
2021/12/22 09:57:32;;;;;;;15.70;3.53;;;;;;;;;;4893859;29;20523;-66
2021/12/22 10:00:06;;;;;;;13.55;3.75;;;;;;;;;;4893680;29;20056;-69
2021/12/22 10:02:42;;;;;;;9.50;3.50;;;;;;;;;;4894009;29;20060;-68
2021/12/22 10:05:13;;;;;;;14.25;3.10;;;;;;;;;;4926319;29;20063;-66
2021/12/22 10:07:44;;;;;;;18.60;3.55;;;;;;;;;;4931679;29;20082;-66
2021/12/22 10:10:16;;;;;;;12.65;2.72;;;;;;;;;;4926733;29;20070;-67
2021/12/22 10:12:47;;;;;;;15.65;3.10;;;;;;;;;;4909963;29;20048;-66
2021/12/22 10:15:18;;;;;;;18.30;3.10;;;;;;;;;;4912301;29;20067;-66
2021/12/22 10:17:51;;;;;;;8.68;3.00;;;;;;;;;;4912873;29;20481;-65
2021/12/22 10:20:21;;;;;;;15.30;3.15;;;;;;;;;;4912841;29;20059;-69
2021/12/22 10:22:52;;;;;;;9.63;2.75;;;;;;;;;;4911999;29;20055;-65
2021/12/22 10:25:26;;;;;;;11.57;3.03;;;;;;;;;;4912474;29;20060;-74
2021/12/22 10:28:02;;;;;;;12.75;2.75;;;;;;;;;;4925090;29;20060;-68
2021/12/22 10:30:40;;;;;;;11.88;2.50;;;;;;;;;;4930636;28;20048;-74
2021/12/22 10:33:22;;;;;;;6.13;2.55;;;;;;;;;;4933702;28;20068;-69
2021/12/22 10:35:59;;;;;;;11.70;2.50;;;;;;;;;;4917442;29;20544;-65
2021/12/22 10:38:32;;;;;;;7.95;2.30;;;;;;;;;;4949406;28;20228;-67
2021/12/22 10:41:08;;;;;;;8.65;3.47;;;;;;;;;;4946338;28;20051;-65
2021/12/22 10:43:48;;;;;;;6.45;2.80;;;;;;;;;;4928003;29;20097;-65
2021/12/22 10:46:27;;;;;;;8.98;2.95;;;;;;;;;;4931439;29;20428;-65
2021/12/22 10:49:15;;;;;;;8.00;2.35;;;;;;;;;;4930537;29;20052;-64
2021/12/22 10:51:57;;;;;;;7.38;3.20;;;;;;;;;;4931956;29;20157;-65
2021/12/22 10:54:39;;;;;;;6.85;2.30;;;;;;;;;;4934246;29;20060;-65
2021/12/22 10:57:12;;;;;;;10.63;2.50;;;;;;;;;;4953679;29;20066;-66
2021/12/22 10:59:45;;;;;;;18.48;6.40;;;;;;;;;;4917127;29;20062;-63
2021/12/22 11:02:34;;;;;;;15.32;2.90;;;;;;;;;;4874251;29;20190;-63
2021/12/22 11:05:18;;;;;;;8.80;2.58;;;;;;;;;;4943018;29;20062;-65
2021/12/22 11:07:48;;;;;;;8.40;2.47;;;;;;;;;;4923063;29;20051;-62
2021/12/22 11:10:26;;;;;;;9.45;3.15;;;;;;;;;;4939029;29;20455;-62
2021/12/22 11:13:00;;;;;;;;;;;;;;;;;;4941198;29;20495;-63
2021/12/22 11:15:39;;;;;;;11.00;2.88;;;;;;;;;;4939967;29;19923;-71
2021/12/22 11:18:23;;;;;;;8.57;2.75;;;;;;;;;;4935584;29;20086;-66
2021/12/22 11:21:31;;;;;;;10.02;2.47;;;;;;;;;;4913027;29;20051;-64
2021/12/22 11:24:01;;;;;;;9.05;4.18;;;;;;;;;;4933363;29;20059;-65
2021/12/22 11:26:32;;;;;;;7.93;2.38;;;;;;;;;;4924989;29;20079;-66
2021/12/22 11:29:03;;;;;;;14.68;4.78;;;;;;;;;;4933233;29;20043;-66
2021/12/22 11:31:34;;;;;;;10.75;3.60;;;;;;;;;;4919328;29;20064;-65
2021/12/22 11:34:04;;;;;;;14.70;3.40;;;;;;;;;;4922361;29;20074;-78
2021/12/22 11:36:35;;;;;;;12.40;3.47;;;;;;;;;;4960321;28;20058;-64
2021/12/22 11:39:05;;;;;;;7.38;2.50;;;;;;;;;;4972801;28;20066;-63
2021/12/22 11:41:43;;;;;;;8.52;2.80;;;;;;;;;;4972795;28;20066;-63
2021/12/22 11:44:14;;;;;;;9.35;3.10;;;;;;;;;;4972078;28;20435;-63
2021/12/22 11:46:44;;;;;;;10.27;2.78;;;;;;;;;;4952660;29;20059;-63
2021/12/22 11:49:19;;;;;;;6.60;3.17;;;;;;;;;;4914735;29;20421;-65
2021/12/22 11:51:50;;;;;;;11.85;4.65;;;;;;;;;;4915330;29;20067;-65
2021/12/22 11:54:27;;;;;;;8.05;3.10;;;;;;;;;;4914363;29;20047;-63
2021/12/22 11:56:59;;;;;;;7.32;2.90;;;;;;;;;;4914840;29;20390;-64
2021/12/22 11:59:34;;;;;;;9.35;2.50;;;;;;;;;;4898732;29;20068;-63
2021/12/22 12:02:35;;;;;;;7.47;2.40;;;;;;;;;;4940986;29;20058;-63
2021/12/22 12:05:25;;;;;;;5.05;2.17;;;;;;;;;;4910694;29;20055;-68
2021/12/22 12:07:58;;;;;;;11.90;2.90;;;;;;;;;;4948345;28;20053;-63
2021/12/22 12:10:39;;;;;;;6.88;3.05;;;;;;;;;;4981841;28;20059;-72
2021/12/22 12:22:42;;;;;;;8.18;2.45;;;;;;;;;;4877112;29;20056;-65
2021/12/22 12:25:14;;;;;;;9.98;2.20;;;;;;;;;;4879403;29;20528;-63
2021/12/22 12:27:52;;;;;;;8.73;2.35;;;;;;;;;;4913970;29;20048;-65
2021/12/22 12:30:48;;;;;;;9.43;2.45;;;;;;;;;;4925429;29;20055;-63
2021/12/22 12:33:29;;;;;;;8.30;2.75;;;;;;;;;;4859076;29;20061;-63
2021/12/22 12:36:06;;;;;;;5.22;2.58;;;;;;;;;;4860593;29;20128;-63
2021/12/22 12:38:44;;;;;;;8.88;2.40;;;;;;;;;;4876618;29;20491;-65
2021/12/22 12:41:20;;;;;;;13.10;2.90;;;;;;;;;;4895693;29;20534;-67
2021/12/22 12:43:57;;;;;;;8.48;2.35;;;;;;;;;;4895500;29;20065;-64
2021/12/22 12:46:37;;;;;;;7.63;2.35;;;;;;;;;;4898346;29;20076;-66
2021/12/22 12:49:13;;;;;;;9.93;2.47;;;;;;;;;;4897995;29;20071;-65
2021/12/22 12:51:47;;;;;;;10.07;2.22;;;;;;;;;;4895161;29;20048;-64
2021/12/22 12:54:17;;;;;;;10.88;2.25;;;;;;;;;;4960567;28;20058;-64
2021/12/22 12:56:51;;;;;;;14.70;2.38;;;;;;;;;;4976714;28;20058;-64
2021/12/22 12:59:27;;;;;;;10.75;2.50;;;;;;;;;;4973142;28;20055;-64
2021/12/22 13:02:01;;;;;;;8.85;2.15;;;;;;;;;;4971272;28;20059;-69
2021/12/22 13:04:40;;;;;;;5.97;2.70;;;;;;;;;;4971376;28;20066;-63
2021/12/22 13:07:19;;;;;;;12.38;2.25;;;;;;;;;;4938879;28;20055;-63
2021/12/22 13:10:01;;;;;;;11.82;2.47;;;;;;;;;;4971221;28;20054;-63
2021/12/22 13:18:17;;;;;;;9.23;2.50;;;;;;;;;;4984974;28;20545;-62
2021/12/22 13:20:49;;;;;;;6.53;2.00;;;;;;;;;;4978043;28;20085;-63
2021/12/22 13:23:21;;;;;;;;;;;;;;;;;;5008477;28;20420;-68
2021/12/22 13:25:54;;;;;;;6.97;2.75;;;;;;;;;;5039343;28;20311;-63
2021/12/22 13:28:31;;;;;;;11.95;2.45;;;;;;;;;;5011119;28;20056;-67
2021/12/22 13:31:08;;;;;;;6.18;1.90;;;;;;;;;;5023884;28;20041;-65
2021/12/22 13:34:01;;;;;;;12.55;3.00;;;;;;;;;;5039421;28;20051;-72
2021/12/22 13:36:34;;;;;;;6.28;2.60;;;;;;;;;;5047882;28;20068;-68
2021/12/22 13:39:05;;;;;;;5.70;1.85;;;;;;;;;;5045549;28;20053;-65
2021/12/22 13:41:36;;;;;;;;;;;;;;;;;;5049031;28;20045;-63
2021/12/22 13:44:06;;;;;;;7.47;2.25;;;;;;;;;;5043962;28;19924;-65
2021/12/22 13:46:38;;;;;;;2.35;1.52;;;;;;;;;;5042400;28;20164;-69
2021/12/22 13:49:12;;;;;;;;;;;;;;;;;;5040784;28;20049;-68
2021/12/22 13:51:44;;;;;;;6.80;1.30;;;;;;;;;;5032602;28;19927;-64
2021/12/22 13:54:19;;;;;;;5.85;1.50;;;;;;;;;;5027780;28;20061;-65
2021/12/22 13:56:51;;;;;;;7.72;1.55;;;;;;;;;;5028437;28;20054;-68
2021/12/22 13:59:23;;;;;;;2.65;1.20;;;;;;;;;;4987701;28;20910;-65
2021/12/22 14:01:56;;;;;;;6.13;1.60;;;;;;;;;;4986323;28;20059;-65
2021/12/22 14:04:36;;;;;;;4.05;1.60;;;;;;;;;;4982252;28;20735;-69
2021/12/22 14:07:11;;;;;;;4.28;1.40;;;;;;;;;;4968107;28;20066;-65
2021/12/22 14:09:53;;;;;;;5.03;1.30;;;;;;;;;;4924396;29;20062;-69
2021/12/22 14:12:33;;;;;;;3.80;1.30;;;;;;;;;;4927492;29;20064;-66
2021/12/22 14:15:04;;;;;;;2.72;1.40;;;;;;;;;;4911307;29;20067;-66
2021/12/22 14:17:42;;;;;;;2.92;1.45;;;;;;;;;;4912061;29;20060;-64
2021/12/22 14:20:21;;;;;;;3.90;1.70;;;;;;;;;;4911324;29;20055;-65
2021/12/22 14:23:02;;;;;;;5.50;1.55;;;;;;;;;;4909100;29;20056;-63
2021/12/22 14:25:33;;;;;;;4.47;1.35;;;;;;;;;;4921148;29;20548;-64
2021/12/22 14:28:25;;;;;;;4.28;1.63;;;;;;;;;;4929646;29;20063;-66
2021/12/22 14:31:07;;;;;;;2.20;1.77;;;;;;;;;;4881429;29;20057;-63
2021/12/22 14:33:38;;;;;;;5.72;1.40;;;;;;;;;;4892496;29;20060;-63
2021/12/22 14:36:09;;;;;;;2.25;1.23;;;;;;;;;;4877104;29;20456;-62
2021/12/22 14:38:50;;;;;;;5.25;1.85;;;;;;;;;;4892845;29;20053;-64
2021/12/22 14:41:28;;;;;;;6.40;1.65;;;;;;;;;;4907369;28;20058;-64
2021/12/22 14:43:58;;;;;;;4.82;1.80;;;;;;;;;;4968167;28;20051;-64
2021/12/22 14:46:34;;;;;;;4.88;1.30;;;;;;;;;;4981207;28;20077;-63
2021/12/22 14:49:20;;;;;;;4.65;1.17;;;;;;;;;;4986327;28;20058;-68
2021/12/22 14:51:52;;;;;;;2.20;1.00;;;;;;;;;;4968645;28;20050;-64
2021/12/22 14:54:23;;;;;;;3.95;1.40;;;;;;;;;;4967656;28;20592;-66
2021/12/22 14:56:57;;;;;;;5.20;1.50;;;;;;;;;;4953228;28;20173;-63
2021/12/22 14:59:35;;;;;;;1.60;0.90;;;;;;;;;;4930768;29;20059;-64
2021/12/22 15:02:05;;;;;;;;;;;;;;;;;;4939259;29;20058;-64
2021/12/22 15:04:35;;;;;;;6.45;1.10;;;;;;;;;;4937029;29;19938;-63
2021/12/22 15:07:06;;;;;;;4.35;0.90;;;;;;;;;;4921404;29;20063;-64
2021/12/22 15:09:36;;;;;;;3.58;1.20;;;;;;;;;;4935140;29;20060;-65
2021/12/22 15:12:07;;;;;;;2.40;0.90;;;;;;;;;;4935130;29;20401;-67
2021/12/22 15:14:38;;;;;;;2.10;1.00;;;;;;;;;;4931417;29;20120;-62
2021/12/22 15:17:09;;;;;;;3.80;2.17;;;;;;;;;;4933216;29;20416;-66
2021/12/22 15:19:39;;;;;;;4.80;1.15;;;;;;;;;;4884576;29;20080;-69
2021/12/22 15:22:09;;;;;;;1.95;0.90;;;;;;;;;;4917526;28;20061;-70
2021/12/22 15:24:40;;;;;;;6.18;1.13;;;;;;;;;;4965316;28;20067;-65
2021/12/22 15:27:10;;;;;;;2.10;1.02;;;;;;;;;;4954361;28;20499;-64
2021/12/22 15:29:40;;;;;;;5.55;1.20;;;;;;;;;;4961536;28;20050;-62
2021/12/22 15:32:10;;;;;;;4.57;1.00;;;;;;;;;;5027194;28;20069;-64
2021/12/22 15:34:42;;;;;;;4.22;1.10;;;;;;;;;;5007329;28;20061;-65
2021/12/22 15:37:12;;;;;;;4.38;1.30;;;;;;;;;;5018099;28;20079;-70
2021/12/22 15:39:42;;;;;;;3.15;1.33;;;;;;;;;;5031012;28;20052;-63
2021/12/22 15:42:12;;;;;;;3.00;1.10;;;;;;;;;;5013975;28;20053;-75
2021/12/22 15:44:43;;;;;;;3.55;0.93;;;;;;;;;;4990901;28;20057;-64
2021/12/22 15:47:15;;;;;;;5.00;1.10;;;;;;;;;;4974531;28;20781;-69
2021/12/22 15:49:45;;;;;;;3.10;0.90;;;;;;;;;;4937027;28;20062;-62
2021/12/22 15:52:16;;;;;;;3.13;1.17;;;;;;;;;;5010066;28;20726;-63